Flight Track Log - Related Links

Times and Time Zones

All times are in EDT time to prevent confusion due to time zone crossing. See the SWA1563 flight status page for this flight to view local times or setup timezone preferences in your user account.

Time Position Orientation Groundspeed Altitude Reporting Facility
EDT Latitude Longitude Course Direction KTS MPH feet Rate Location/Type
Sat 13:37:36 29.7089 -95.2658 North 227 261 3,000  Level Houston Center
Sat 13:38:18 29.7411 -95.2803 339° North 264 304 4,200 3,346 Climbing Houston Center
Sat 13:39:20 29.8214 -95.3250 334° Northwest 267 307 8,800 3,677 Climbing Houston Center
Sat 13:40:22 29.9022 -95.3489 346° North 298 343 11,800 3,242 Climbing Houston Center
Sat 13:41:24 29.9953 -95.3675 350° North 333 383 15,500 3,242 Climbing Houston Center
Sat 13:42:26 30.0950 -95.3886 350° North 355 409 18,500 2,710 Climbing Houston Center
Sat 13:43:28 30.1953 -95.4097 350° North 364 419 21,100 2,468 Climbing Houston Center
Sat 13:44:30 30.2997 -95.4300 350° North 376 433 23,600 2,613 Climbing Houston Center
Sat 13:45:32 30.4297 -95.4564 350° North 394 453 26,500 2,419 Climbing Houston Center
Sat 13:46:34 30.5400 -95.4781 350° North 400 460 28,600 1,984 Climbing Houston Center
Sat 13:47:36 30.6519 -95.5019 350° North 406 467 30,600 2,226 Climbing Houston Center
Sat 13:48:38 30.7606 -95.5267 349° North 406 467 33,200 1,645 Climbing Houston Center
Sat 13:49:40 30.8686 -95.5519 349° North 394 453 34,000 387 Climbing Houston Center
Sat 13:50:42 31.0003 -95.5806 349° North 396 456 34,000  Level Houston Center
Sat 13:51:44 31.1094 -95.6058 349° North 396 456 34,000 -194 Level Houston Center
Sat 13:52:46 31.2208 -95.6314 349° North 401 461 33,600 -699 Descending Houston Center
Sat 13:53:27 31.3011 -95.6483 350° North 402 463 32,800 -1,069 Descending Fort Worth Center
Sat 13:54:27 31.4019 -95.6925 340° North 391 450 31,800 -900 Descending Fort Worth Center
Sat 13:55:27 31.4883 -95.7469 332° Northwest 381 438 31,000 -850 Descending Fort Worth Center
Sat 13:56:27 31.5789 -95.8089 330° Northwest 381 438 30,100 -1,300 Descending Fort Worth Center
Sat 13:57:27 31.6717 -95.8731 330° Northwest 381 438 28,400 -2,100 Descending Fort Worth Center
Sat 13:58:27 31.7664 -95.9375 330° Northwest 387 445 25,900 -2,500 Descending Fort Worth Center
Sat 13:59:27 31.8525 -95.9947 331° Northwest 376 433 23,400 -2,350 Descending Fort Worth Center
Sat 14:00:27 31.9389 -96.0497 332° Northwest 357 411 21,200 -2,200 Descending Fort Worth Center
Sat 14:01:27 32.0186 -96.1025 331° Northwest 333 383 19,000 -2,050 Descending Fort Worth Center
Sat 14:02:27 32.0964 -96.1553 330° Northwest 322 371 17,100 -2,050 Descending Fort Worth Center
Sat 14:03:27 32.1806 -96.2131 330° Northwest 317 365 14,900 -2,200 Descending Fort Worth Center
Sat 14:04:27 32.2561 -96.2611 332° Northwest 322 371 12,700 -1,850 Descending Fort Worth Center
Sat 14:05:27 32.3358 -96.3094 333° Northwest 315 362 11,200 -1,350 Descending Fort Worth Center
Sat 14:06:27 32.4114 -96.3528 334° Northwest 309 356 10,000 -600 Descending Fort Worth Center
Sat 14:07:27 32.4806 -96.3964 332° Northwest 304 350 10,000 -450 Level Fort Worth Center
Sat 14:08:27 32.5542 -96.4372 335° Northwest 283 326 9,100 -1,140 Descending Fort Worth Center
Sat 14:09:28 32.6275 -96.4761 336° Northwest 283 326 7,700 -1,150 Descending Fort Worth Center
Sat 14:10:27 32.6944 -96.5100 337° Northwest 283 326 6,800 -1,008 Descending Fort Worth Center
Sat 14:11:27 32.7742 -96.5586 333° Northwest 283 326 5,700 -1,000 Descending Fort Worth Center
Sat 14:12:27 32.8183 -96.6272 307° West 278 320 4,800 -1,024 Descending Fort Worth Center
Sat 14:12:49 32.8333 -96.6667 294° West 287 330 4,300 -711 Descending Dallas / Fort Worth TRACON
Sat 14:13:43 32.8833 -96.7167 320° Northwest 248 285 3,900 -650 Descending Dallas / Fort Worth TRACON
Sat 14:14:49 32.9167 -96.7833 301° West 220 253 3,000 -496 Descending Dallas / Fort Worth TRACON
Sat 14:15:44 32.9500 -96.8333 308° West 211 243 2,900 -261 Descending Dallas / Fort Worth TRACON
Sat 14:16:44 32.9500 -96.9000 270° West 187 215 2,500 -500 Descending Dallas / Fort Worth TRACON
Sat 14:17:44 32.9000 -96.9167 196° South 166 191 1,900 -650 Descending Dallas / Fort Worth TRACON
Sat 14:18:44 32.8833 -96.9000 140° Southeast 129 148 1,200 -700 Descending Dallas / Fort Worth TRACON
Sat 14:20:00 32.8471 -96.8518 196° South  Level Estimated
Sat 14:27:00 32.8471 -96.8518 196° South  Level Estimated
Sat 14:28:00 32.8471 -96.8518 196° South  Level Estimated

Login

Don't have an account? Register now (free) for customized features, flight alerts, and more!